sensor_id;sensor_type;location;lat;lon;timestamp;P1;durP1;ratioP1;P2;durP2;ratioP2
78489;SDS011;67776;52.012;4.736;2023-08-06T00:01:11;15.02;;;8.82;;
78489;SDS011;67776;52.012;4.736;2023-08-06T00:03:36;17.50;;;8.37;;
78489;SDS011;67776;52.012;4.736;2023-08-06T00:06:02;13.55;;;8.13;;
78489;SDS011;67776;52.012;4.736;2023-08-06T00:08:29;15.47;;;8.47;;
78489;SDS011;67776;52.012;4.736;2023-08-06T00:10:55;14.90;;;8.27;;
78489;SDS011;67776;52.012;4.736;2023-08-06T00:13:20;15.07;;;8.10;;
78489;SDS011;67776;52.012;4.736;2023-08-06T00:15:45;14.30;;;8.37;;
78489;SDS011;67776;52.012;4.736;2023-08-06T00:18:11;16.37;;;8.40;;
78489;SDS011;67776;52.012;4.736;2023-08-06T00:20:38;15.33;;;8.70;;
78489;SDS011;67776;52.012;4.736;2023-08-06T00:23:04;16.00;;;8.63;;
78489;SDS011;67776;52.012;4.736;2023-08-06T00:25:29;18.37;;;9.20;;
78489;SDS011;67776;52.012;4.736;2023-08-06T00:27:55;15.20;;;9.13;;
78489;SDS011;67776;52.012;4.736;2023-08-06T00:30:21;16.65;;;8.60;;
78489;SDS011;67776;52.012;4.736;2023-08-06T00:32:46;16.30;;;9.20;;
78489;SDS011;67776;52.012;4.736;2023-08-06T00:35:12;18.27;;;9.47;;
78489;SDS011;67776;52.012;4.736;2023-08-06T00:37:38;19.48;;;9.80;;
78489;SDS011;67776;52.012;4.736;2023-08-06T00:40:04;20.80;;;10.52;;
78489;SDS011;67776;52.012;4.736;2023-08-06T00:42:30;18.10;;;9.50;;
78489;SDS011;67776;52.012;4.736;2023-08-06T00:44:55;19.30;;;9.63;;
78489;SDS011;67776;52.012;4.736;2023-08-06T00:47:21;19.13;;;10.32;;
78489;SDS011;67776;52.012;4.736;2023-08-06T00:49:46;17.40;;;10.20;;
78489;SDS011;67776;52.012;4.736;2023-08-06T00:52:12;17.40;;;9.80;;
78489;SDS011;67776;52.012;4.736;2023-08-06T00:54:39;19.63;;;9.60;;
78489;SDS011;67776;52.012;4.736;2023-08-06T00:57:04;17.90;;;9.63;;
78489;SDS011;67776;52.012;4.736;2023-08-06T00:59:32;17.35;;;9.77;;
78489;SDS011;67776;52.012;4.736;2023-08-06T01:01:57;18.53;;;10.27;;
78489;SDS011;67776;52.012;4.736;2023-08-06T01:04:23;19.13;;;10.47;;
78489;SDS011;67776;52.012;4.736;2023-08-06T01:06:52;19.90;;;10.48;;
78489;SDS011;67776;52.012;4.736;2023-08-06T01:09:52;18.77;;;10.10;;
78489;SDS011;67776;52.012;4.736;2023-08-06T01:15:35;18.98;;;10.05;;
78489;SDS011;67776;52.012;4.736;2023-08-06T01:18:07;17.73;;;9.95;;
78489;SDS011;67776;52.012;4.736;2023-08-06T01:20:32;18.07;;;10.67;;
78489;SDS011;67776;52.012;4.736;2023-08-06T01:22:58;22.03;;;10.20;;
78489;SDS011;67776;52.012;4.736;2023-08-06T01:25:26;19.90;;;10.63;;
78489;SDS011;67776;52.012;4.736;2023-08-06T01:27:56;19.13;;;10.38;;
78489;SDS011;67776;52.012;4.736;2023-08-06T01:30:31;19.52;;;10.32;;
78489;SDS011;67776;52.012;4.736;2023-08-06T01:33:02;19.58;;;10.57;;
78489;SDS011;67776;52.012;4.736;2023-08-06T01:35:29;20.33;;;10.10;;
78489;SDS011;67776;52.012;4.736;2023-08-06T01:37:55;18.38;;;9.85;;
78489;SDS011;67776;52.012;4.736;2023-08-06T01:40:21;18.08;;;10.20;;
78489;SDS011;67776;52.012;4.736;2023-08-06T01:42:46;19.23;;;10.20;;
78489;SDS011;67776;52.012;4.736;2023-08-06T01:45:12;21.07;;;9.83;;
78489;SDS011;67776;52.012;4.736;2023-08-06T01:47:37;17.10;;;9.40;;
78489;SDS011;67776;52.012;4.736;2023-08-06T01:50:03;13.87;;;8.57;;
78489;SDS011;67776;52.012;4.736;2023-08-06T01:52:28;15.03;;;8.80;;
78489;SDS011;67776;52.012;4.736;2023-08-06T01:54:54;15.63;;;9.33;;
78489;SDS011;67776;52.012;4.736;2023-08-06T01:57:19;16.58;;;9.50;;
78489;SDS011;67776;52.012;4.736;2023-08-06T01:59:45;15.33;;;8.90;;
78489;SDS011;67776;52.012;4.736;2023-08-06T02:02:10;15.37;;;8.87;;
78489;SDS011;67776;52.012;4.736;2023-08-06T02:04:35;15.13;;;9.27;;
78489;SDS011;67776;52.012;4.736;2023-08-06T02:07:01;23.52;;;9.13;;
78489;SDS011;67776;52.012;4.736;2023-08-06T02:09:26;15.00;;;8.63;;
78489;SDS011;67776;52.012;4.736;2023-08-06T02:11:52;17.47;;;9.40;;
78489;SDS011;67776;52.012;4.736;2023-08-06T02:14:17;15.33;;;9.20;;
78489;SDS011;67776;52.012;4.736;2023-08-06T02:16:42;15.47;;;8.80;;
78489;SDS011;67776;52.012;4.736;2023-08-06T02:19:08;16.23;;;8.57;;
78489;SDS011;67776;52.012;4.736;2023-08-06T02:21:33;16.20;;;8.77;;
78489;SDS011;67776;52.012;4.736;2023-08-06T02:23:58;15.43;;;8.65;;
78489;SDS011;67776;52.012;4.736;2023-08-06T02:26:23;15.50;;;8.83;;
78489;SDS011;67776;52.012;4.736;2023-08-06T02:28:49;14.37;;;8.60;;
78489;SDS011;67776;52.012;4.736;2023-08-06T02:31:14;17.90;;;9.80;;
78489;SDS011;67776;52.012;4.736;2023-08-06T02:33:40;20.83;;;9.80;;
78489;SDS011;67776;52.012;4.736;2023-08-06T02:36:05;16.80;;;9.23;;
78489;SDS011;67776;52.012;4.736;2023-08-06T02:38:31;15.93;;;9.07;;
78489;SDS011;67776;52.012;4.736;2023-08-06T02:40:56;17.43;;;9.33;;
78489;SDS011;67776;52.012;4.736;2023-08-06T02:43:22;15.97;;;9.37;;
78489;SDS011;67776;52.012;4.736;2023-08-06T02:45:47;15.30;;;8.43;;
78489;SDS011;67776;52.012;4.736;2023-08-06T02:48:12;18.17;;;8.80;;
78489;SDS011;67776;52.012;4.736;2023-08-06T02:50:38;16.77;;;9.67;;
78489;SDS011;67776;52.012;4.736;2023-08-06T02:53:04;19.50;;;9.68;;
78489;SDS011;67776;52.012;4.736;2023-08-06T02:55:30;16.73;;;9.17;;
78489;SDS011;67776;52.012;4.736;2023-08-06T02:57:56;16.97;;;9.27;;
78489;SDS011;67776;52.012;4.736;2023-08-06T03:00:21;18.88;;;9.40;;
78489;SDS011;67776;52.012;4.736;2023-08-06T03:02:46;19.90;;;10.27;;
78489;SDS011;67776;52.012;4.736;2023-08-06T03:05:12;18.00;;;9.33;;
78489;SDS011;67776;52.012;4.736;2023-08-06T03:07:37;20.57;;;10.20;;
78489;SDS011;67776;52.012;4.736;2023-08-06T03:10:03;21.13;;;10.43;;
78489;SDS011;67776;52.012;4.736;2023-08-06T03:12:28;22.45;;;11.18;;
78489;SDS011;67776;52.012;4.736;2023-08-06T03:14:53;20.40;;;10.47;;
78489;SDS011;67776;52.012;4.736;2023-08-06T03:17:19;20.47;;;11.43;;
78489;SDS011;67776;52.012;4.736;2023-08-06T03:19:44;23.00;;;10.60;;
78489;SDS011;67776;52.012;4.736;2023-08-06T03:22:09;19.97;;;10.97;;
78489;SDS011;67776;52.012;4.736;2023-08-06T03:24:35;22.93;;;10.73;;
78489;SDS011;67776;52.012;4.736;2023-08-06T03:27:00;20.25;;;10.68;;
78489;SDS011;67776;52.012;4.736;2023-08-06T03:29:26;21.53;;;11.17;;
78489;SDS011;67776;52.012;4.736;2023-08-06T03:31:51;20.73;;;11.40;;
78489;SDS011;67776;52.012;4.736;2023-08-06T03:34:17;22.13;;;11.77;;
78489;SDS011;67776;52.012;4.736;2023-08-06T03:36:42;23.48;;;11.60;;
78489;SDS011;67776;52.012;4.736;2023-08-06T03:39:07;22.40;;;11.60;;
78489;SDS011;67776;52.012;4.736;2023-08-06T03:41:33;25.43;;;12.33;;
78489;SDS011;67776;52.012;4.736;2023-08-06T03:43:58;23.57;;;12.53;;
78489;SDS011;67776;52.012;4.736;2023-08-06T03:46:23;26.33;;;12.97;;
78489;SDS011;67776;52.012;4.736;2023-08-06T03:48:49;25.15;;;12.52;;
78489;SDS011;67776;52.012;4.736;2023-08-06T03:51:15;24.50;;;12.33;;
78489;SDS011;67776;52.012;4.736;2023-08-06T03:53:40;24.77;;;12.83;;
78489;SDS011;67776;52.012;4.736;2023-08-06T03:56:05;23.27;;;12.77;;
78489;SDS011;67776;52.012;4.736;2023-08-06T03:58:31;25.98;;;13.32;;
78489;SDS011;67776;52.012;4.736;2023-08-06T04:01:02;29.60;;;13.10;;
78489;SDS011;67776;52.012;4.736;2023-08-06T04:03:28;26.55;;;13.57;;
78489;SDS011;67776;52.012;4.736;2023-08-06T04:05:54;23.37;;;12.37;;
78489;SDS011;67776;52.012;4.736;2023-08-06T04:08:19;24.10;;;12.73;;
78489;SDS011;67776;52.012;4.736;2023-08-06T04:10:45;25.27;;;13.20;;
78489;SDS011;67776;52.012;4.736;2023-08-06T04:13:14;26.63;;;13.02;;
78489;SDS011;67776;52.012;4.736;2023-08-06T04:15:39;16.23;;;8.73;;
78489;SDS011;67776;52.012;4.736;2023-08-06T04:18:04;16.13;;;5.90;;
78489;SDS011;67776;52.012;4.736;2023-08-06T04:20:29;10.23;;;5.10;;
78489;SDS011;67776;52.012;4.736;2023-08-06T04:22:55;12.60;;;5.07;;
78489;SDS011;67776;52.012;4.736;2023-08-06T04:25:20;9.70;;;4.87;;
78489;SDS011;67776;52.012;4.736;2023-08-06T04:27:49;13.83;;;6.53;;
78489;SDS011;67776;52.012;4.736;2023-08-06T04:30:14;13.13;;;6.32;;
78489;SDS011;67776;52.012;4.736;2023-08-06T04:32:40;14.50;;;6.50;;
78489;SDS011;67776;52.012;4.736;2023-08-06T04:35:05;13.80;;;6.20;;
78489;SDS011;67776;52.012;4.736;2023-08-06T04:37:31;13.20;;;6.50;;
78489;SDS011;67776;52.012;4.736;2023-08-06T04:39:56;14.65;;;6.30;;
78489;SDS011;67776;52.012;4.736;2023-08-06T04:42:22;13.77;;;6.77;;
78489;SDS011;67776;52.012;4.736;2023-08-06T04:44:47;14.27;;;7.37;;
78489;SDS011;67776;52.012;4.736;2023-08-06T04:47:12;13.80;;;7.27;;
78489;SDS011;67776;52.012;4.736;2023-08-06T04:49:38;22.43;;;6.90;;
78489;SDS011;67776;52.012;4.736;2023-08-06T04:52:03;14.77;;;6.60;;
78489;SDS011;67776;52.012;4.736;2023-08-06T04:54:29;13.43;;;7.07;;
78489;SDS011;67776;52.012;4.736;2023-08-06T04:56:54;14.20;;;6.40;;
78489;SDS011;67776;52.012;4.736;2023-08-06T04:59:19;17.87;;;6.43;;
78489;SDS011;67776;52.012;4.736;2023-08-06T05:01:45;10.57;;;5.27;;
78489;SDS011;67776;52.012;4.736;2023-08-06T05:04:10;11.15;;;4.70;;
78489;SDS011;67776;52.012;4.736;2023-08-06T05:06:35;10.17;;;5.13;;
78489;SDS011;67776;52.012;4.736;2023-08-06T05:09:03;10.43;;;5.05;;
78489;SDS011;67776;52.012;4.736;2023-08-06T05:11:29;10.33;;;5.13;;
78489;SDS011;67776;52.012;4.736;2023-08-06T05:13:54;10.80;;;4.53;;
78489;SDS011;67776;52.012;4.736;2023-08-06T05:16:20;12.40;;;4.87;;
78489;SDS011;67776;52.012;4.736;2023-08-06T05:18:45;12.07;;;4.83;;
78489;SDS011;67776;52.012;4.736;2023-08-06T05:21:11;8.63;;;4.50;;
78489;SDS011;67776;52.012;4.736;2023-08-06T05:23:36;8.17;;;4.10;;
78489;SDS011;67776;52.012;4.736;2023-08-06T05:26:01;10.27;;;4.23;;
78489;SDS011;67776;52.012;4.736;2023-08-06T05:28:27;9.82;;;4.10;;
78489;SDS011;67776;52.012;4.736;2023-08-06T05:30:52;8.57;;;4.10;;
78489;SDS011;67776;52.012;4.736;2023-08-06T05:33:18;9.33;;;4.77;;
78489;SDS011;67776;52.012;4.736;2023-08-06T05:35:43;9.43;;;4.50;;
78489;SDS011;67776;52.012;4.736;2023-08-06T05:38:08;9.67;;;4.50;;
78489;SDS011;67776;52.012;4.736;2023-08-06T05:40:34;9.33;;;4.97;;
78489;SDS011;67776;52.012;4.736;2023-08-06T05:42:59;9.73;;;4.70;;
78489;SDS011;67776;52.012;4.736;2023-08-06T05:45:25;11.83;;;4.97;;
78489;SDS011;67776;52.012;4.736;2023-08-06T05:47:50;11.27;;;5.13;;
78489;SDS011;67776;52.012;4.736;2023-08-06T05:50:15;13.15;;;4.75;;
78489;SDS011;67776;52.012;4.736;2023-08-06T05:52:41;9.67;;;5.23;;
78489;SDS011;67776;52.012;4.736;2023-08-06T05:55:06;7.60;;;4.30;;
78489;SDS011;67776;52.012;4.736;2023-08-06T05:57:32;9.20;;;4.37;;
78489;SDS011;67776;52.012;4.736;2023-08-06T05:59:57;10.23;;;4.50;;
78489;SDS011;67776;52.012;4.736;2023-08-06T06:02:23;8.97;;;4.40;;
78489;SDS011;67776;52.012;4.736;2023-08-06T06:04:48;10.33;;;4.83;;
78489;SDS011;67776;52.012;4.736;2023-08-06T06:07:14;11.53;;;5.33;;
78489;SDS011;67776;52.012;4.736;2023-08-06T06:09:39;11.07;;;5.07;;
78489;SDS011;67776;52.012;4.736;2023-08-06T06:12:05;9.57;;;4.80;;
78489;SDS011;67776;52.012;4.736;2023-08-06T06:14:31;8.77;;;4.35;;
78489;SDS011;67776;52.012;4.736;2023-08-06T06:16:56;11.43;;;5.00;;
78489;SDS011;67776;52.012;4.736;2023-08-06T06:19:22;11.67;;;4.93;;
78489;SDS011;67776;52.012;4.736;2023-08-06T06:21:47;15.27;;;5.20;;
78489;SDS011;67776;52.012;4.736;2023-08-06T06:24:12;10.60;;;5.20;;
78489;SDS011;67776;52.012;4.736;2023-08-06T06:26:38;12.67;;;5.23;;
78489;SDS011;67776;52.012;4.736;2023-08-06T06:29:04;11.70;;;5.40;;
78489;SDS011;67776;52.012;4.736;2023-08-06T06:31:29;12.47;;;5.20;;
78489;SDS011;67776;52.012;4.736;2023-08-06T06:33:55;10.27;;;5.13;;
78489;SDS011;67776;52.012;4.736;2023-08-06T06:36:20;12.90;;;6.30;;
78489;SDS011;67776;52.012;4.736;2023-08-06T06:38:46;10.98;;;5.85;;
78489;SDS011;67776;52.012;4.736;2023-08-06T06:41:11;12.80;;;5.70;;
78489;SDS011;67776;52.012;4.736;2023-08-06T06:43:36;11.43;;;5.37;;
78489;SDS011;67776;52.012;4.736;2023-08-06T06:46:03;12.65;;;5.38;;
78489;SDS011;67776;52.012;4.736;2023-08-06T06:48:29;12.93;;;5.47;;
78489;SDS011;67776;52.012;4.736;2023-08-06T06:50:56;11.02;;;5.55;;
78489;SDS011;67776;52.012;4.736;2023-08-06T06:53:22;13.23;;;5.30;;
78489;SDS011;67776;52.012;4.736;2023-08-06T06:56:00;14.65;;;5.40;;
78489;SDS011;67776;52.012;4.736;2023-08-06T06:58:27;12.15;;;4.95;;
78489;SDS011;67776;52.012;4.736;2023-08-06T07:00:52;13.20;;;4.90;;
78489;SDS011;67776;52.012;4.736;2023-08-06T07:03:19;10.47;;;3.97;;
78489;SDS011;67776;52.012;4.736;2023-08-06T07:05:47;10.90;;;3.80;;
78489;SDS011;67776;52.012;4.736;2023-08-06T07:08:12;10.27;;;3.70;;
78489;SDS011;67776;52.012;4.736;2023-08-06T07:10:38;9.73;;;3.40;;
78489;SDS011;67776;52.012;4.736;2023-08-06T07:13:05;12.00;;;3.40;;
78489;SDS011;67776;52.012;4.736;2023-08-06T07:15:30;9.80;;;3.00;;
78489;SDS011;67776;52.012;4.736;2023-08-06T07:17:56;10.25;;;3.08;;
78489;SDS011;67776;52.012;4.736;2023-08-06T07:20:22;9.87;;;3.00;;
78489;SDS011;67776;52.012;4.736;2023-08-06T07:22:47;6.83;;;2.70;;
78489;SDS011;67776;52.012;4.736;2023-08-06T07:25:12;7.00;;;2.20;;
78489;SDS011;67776;52.012;4.736;2023-08-06T07:27:38;7.10;;;2.33;;
78489;SDS011;67776;52.012;4.736;2023-08-06T07:30:03;8.77;;;2.20;;
78489;SDS011;67776;52.012;4.736;2023-08-06T07:32:30;6.22;;;2.10;;
78489;SDS011;67776;52.012;4.736;2023-08-06T07:34:56;8.40;;;2.20;;
78489;SDS011;67776;52.012;4.736;2023-08-06T07:37:24;7.15;;;1.98;;
78489;SDS011;67776;52.012;4.736;2023-08-06T07:39:50;7.13;;;2.00;;
78489;SDS011;67776;52.012;4.736;2023-08-06T07:42:15;7.45;;;2.05;;
78489;SDS011;67776;52.012;4.736;2023-08-06T07:44:40;9.03;;;2.00;;
78489;SDS011;67776;52.012;4.736;2023-08-06T07:47:06;7.57;;;2.23;;
78489;SDS011;67776;52.012;4.736;2023-08-06T07:49:31;8.60;;;1.93;;
78489;SDS011;67776;52.012;4.736;2023-08-06T07:51:56;4.67;;;2.07;;
78489;SDS011;67776;52.012;4.736;2023-08-06T07:54:22;5.37;;;1.60;;
78489;SDS011;67776;52.012;4.736;2023-08-06T07:56:49;6.45;;;1.60;;
78489;SDS011;67776;52.012;4.736;2023-08-06T07:59:14;9.43;;;1.93;;
78489;SDS011;67776;52.012;4.736;2023-08-06T08:01:40;6.67;;;1.83;;
78489;SDS011;67776;52.012;4.736;2023-08-06T08:04:05;7.60;;;1.67;;
78489;SDS011;67776;52.012;4.736;2023-08-06T08:06:30;9.73;;;2.30;;
78489;SDS011;67776;52.012;4.736;2023-08-06T08:08:56;6.57;;;1.60;;
78489;SDS011;67776;52.012;4.736;2023-08-06T08:11:21;6.10;;;1.70;;
78489;SDS011;67776;52.012;4.736;2023-08-06T08:13:47;4.80;;;1.60;;
78489;SDS011;67776;52.012;4.736;2023-08-06T08:16:12;6.63;;;1.60;;
78489;SDS011;67776;52.012;4.736;2023-08-06T08:18:37;7.33;;;2.20;;
78489;SDS011;67776;52.012;4.736;2023-08-06T08:21:02;6.60;;;2.00;;
78489;SDS011;67776;52.012;4.736;2023-08-06T08:23:28;7.43;;;2.30;;
78489;SDS011;67776;52.012;4.736;2023-08-06T08:25:53;7.70;;;2.00;;
78489;SDS011;67776;52.012;4.736;2023-08-06T08:28:19;12.07;;;1.90;;
78489;SDS011;67776;52.012;4.736;2023-08-06T08:30:44;6.00;;;1.80;;
78489;SDS011;67776;52.012;4.736;2023-08-06T08:33:09;7.85;;;2.10;;
78489;SDS011;67776;52.012;4.736;2023-08-06T08:35:36;5.40;;;1.90;;
78489;SDS011;67776;52.012;4.736;2023-08-06T08:38:01;6.13;;;1.75;;
78489;SDS011;67776;52.012;4.736;2023-08-06T08:40:32;5.73;;;1.83;;
78489;SDS011;67776;52.012;4.736;2023-08-06T08:43:02;5.15;;;2.10;;
78489;SDS011;67776;52.012;4.736;2023-08-06T08:45:28;7.57;;;1.90;;
78489;SDS011;67776;52.012;4.736;2023-08-06T08:47:54;7.07;;;1.70;;
78489;SDS011;67776;52.012;4.736;2023-08-06T08:50:20;6.73;;;1.87;;
78489;SDS011;67776;52.012;4.736;2023-08-06T08:52:46;7.38;;;1.95;;
78489;SDS011;67776;52.012;4.736;2023-08-06T08:55:15;7.05;;;1.75;;
78489;SDS011;67776;52.012;4.736;2023-08-06T08:57:41;7.50;;;2.55;;
78489;SDS011;67776;52.012;4.736;2023-08-06T09:00:07;10.73;;;2.37;;
78489;SDS011;67776;52.012;4.736;2023-08-06T09:02:33;7.82;;;2.03;;
78489;SDS011;67776;52.012;4.736;2023-08-06T09:04:59;6.43;;;1.83;;
78489;SDS011;67776;52.012;4.736;2023-08-06T09:07:27;7.83;;;2.43;;
78489;SDS011;67776;52.012;4.736;2023-08-06T09:09:56;6.70;;;1.80;;
78489;SDS011;67776;52.012;4.736;2023-08-06T09:12:23;5.70;;;1.60;;
78489;SDS011;67776;52.012;4.736;2023-08-06T09:14:48;8.10;;;1.80;;
78489;SDS011;67776;52.012;4.736;2023-08-06T09:17:14;9.10;;;2.37;;
78489;SDS011;67776;52.012;4.736;2023-08-06T09:19:42;7.63;;;1.95;;
78489;SDS011;67776;52.012;4.736;2023-08-06T09:22:11;4.80;;;1.80;;
78489;SDS011;67776;52.012;4.736;2023-08-06T09:24:38;7.45;;;1.80;;
78489;SDS011;67776;52.012;4.736;2023-08-06T09:27:05;7.53;;;1.98;;
78489;SDS011;67776;52.012;4.736;2023-08-06T09:29:39;6.97;;;1.98;;
78489;SDS011;67776;52.012;4.736;2023-08-06T09:32:05;8.50;;;1.95;;
78489;SDS011;67776;52.012;4.736;2023-08-06T09:34:31;7.80;;;2.13;;
78489;SDS011;67776;52.012;4.736;2023-08-06T09:36:56;7.67;;;2.50;;
78489;SDS011;67776;52.012;4.736;2023-08-06T09:39:26;7.33;;;2.23;;
78489;SDS011;67776;52.012;4.736;2023-08-06T09:41:55;6.50;;;2.00;;
78489;SDS011;67776;52.012;4.736;2023-08-06T09:44:25;7.55;;;2.25;;
78489;SDS011;67776;52.012;4.736;2023-08-06T09:46:52;9.38;;;2.78;;
78489;SDS011;67776;52.012;4.736;2023-08-06T09:49:19;14.70;;;2.90;;
78489;SDS011;67776;52.012;4.736;2023-08-06T09:51:48;6.55;;;1.70;;
78489;SDS011;67776;52.012;4.736;2023-08-06T09:54:17;5.20;;;1.53;;
78489;SDS011;67776;52.012;4.736;2023-08-06T09:56:45;5.70;;;1.90;;
78489;SDS011;67776;52.012;4.736;2023-08-06T09:59:11;5.30;;;1.80;;
78489;SDS011;67776;52.012;4.736;2023-08-06T10:01:37;5.57;;;1.60;;
78489;SDS011;67776;52.012;4.736;2023-08-06T10:04:03;6.28;;;1.90;;
78489;SDS011;67776;52.012;4.736;2023-08-06T10:06:31;5.20;;;1.83;;
78489;SDS011;67776;52.012;4.736;2023-08-06T10:09:03;6.82;;;1.88;;
78489;SDS011;67776;52.012;4.736;2023-08-06T10:11:29;6.27;;;1.90;;
78489;SDS011;67776;52.012;4.736;2023-08-06T10:13:58;5.57;;;1.98;;
78489;SDS011;67776;52.012;4.736;2023-08-06T10:16:28;6.90;;;1.85;;
78489;SDS011;67776;52.012;4.736;2023-08-06T10:18:54;7.07;;;1.60;;
78489;SDS011;67776;52.012;4.736;2023-08-06T10:21:23;5.25;;;1.52;;
78489;SDS011;67776;52.012;4.736;2023-08-06T10:23:55;6.57;;;1.63;;
78489;SDS011;67776;52.012;4.736;2023-08-06T10:26:24;4.18;;;1.70;;
78489;SDS011;67776;52.012;4.736;2023-08-06T10:28:53;5.60;;;1.70;;
78489;SDS011;67776;52.012;4.736;2023-08-06T10:31:19;5.70;;;1.60;;
78489;SDS011;67776;52.012;4.736;2023-08-06T10:33:45;4.37;;;1.60;;
78489;SDS011;67776;52.012;4.736;2023-08-06T10:36:11;3.65;;;1.48;;
78489;SDS011;67776;52.012;4.736;2023-08-06T10:38:44;5.63;;;1.50;;
78489;SDS011;67776;52.012;4.736;2023-08-06T10:41:22;5.18;;;1.60;;
78489;SDS011;67776;52.012;4.736;2023-08-06T10:43:52;4.00;;;1.40;;
78489;SDS011;67776;52.012;4.736;2023-08-06T10:46:25;5.83;;;1.50;;
78489;SDS011;67776;52.012;4.736;2023-08-06T10:48:52;4.93;;;1.60;;
78489;SDS011;67776;52.012;4.736;2023-08-06T10:51:17;3.33;;;1.20;;
78489;SDS011;67776;52.012;4.736;2023-08-06T10:53:46;3.37;;;1.30;;
78489;SDS011;67776;52.012;4.736;2023-08-06T10:56:13;3.28;;;1.30;;
78489;SDS011;67776;52.012;4.736;2023-08-06T10:58:40;5.22;;;1.30;;
78489;SDS011;67776;52.012;4.736;2023-08-06T11:01:06;3.77;;;1.50;;
78489;SDS011;67776;52.012;4.736;2023-08-06T11:03:32;4.93;;;1.60;;
78489;SDS011;67776;52.012;4.736;2023-08-06T11:05:59;3.77;;;1.30;;
78489;SDS011;67776;52.012;4.736;2023-08-06T11:08:28;3.38;;;1.30;;
78489;SDS011;67776;52.012;4.736;2023-08-06T11:11:07;2.97;;;1.20;;
78489;SDS011;67776;52.012;4.736;2023-08-06T11:13:36;2.65;;;1.20;;
78489;SDS011;67776;52.012;4.736;2023-08-06T11:16:03;3.53;;;1.20;;
78489;SDS011;67776;52.012;4.736;2023-08-06T11:18:29;4.10;;;1.50;;
78489;SDS011;67776;52.012;4.736;2023-08-06T11:20:54;4.30;;;1.27;;
78489;SDS011;67776;52.012;4.736;2023-08-06T11:23:20;4.57;;;1.40;;
78489;SDS011;67776;52.012;4.736;2023-08-06T11:25:45;6.13;;;1.43;;
78489;SDS011;67776;52.012;4.736;2023-08-06T11:28:11;3.37;;;1.30;;
78489;SDS011;67776;52.012;4.736;2023-08-06T11:30:37;3.00;;;1.33;;
78489;SDS011;67776;52.012;4.736;2023-08-06T11:33:03;5.53;;;1.77;;
78489;SDS011;67776;52.012;4.736;2023-08-06T11:35:28;5.13;;;1.60;;
78489;SDS011;67776;52.012;4.736;2023-08-06T11:37:53;4.37;;;1.47;;
78489;SDS011;67776;52.012;4.736;2023-08-06T11:40:19;4.20;;;1.40;;
78489;SDS011;67776;52.012;4.736;2023-08-06T11:42:46;8.98;;;1.60;;
78489;SDS011;67776;52.012;4.736;2023-08-06T11:45:11;4.20;;;1.20;;
78489;SDS011;67776;52.012;4.736;2023-08-06T11:47:40;2.90;;;1.30;;
78489;SDS011;67776;52.012;4.736;2023-08-06T11:50:05;4.72;;;1.30;;
78489;SDS011;67776;52.012;4.736;2023-08-06T11:52:31;6.83;;;1.70;;
78489;SDS011;67776;52.012;4.736;2023-08-06T11:57:29;4.18;;;1.50;;
78489;SDS011;67776;52.012;4.736;2023-08-06T12:00:01;3.23;;;1.40;;
78489;SDS011;67776;52.012;4.736;2023-08-06T12:02:30;5.47;;;1.52;;
78489;SDS011;67776;52.012;4.736;2023-08-06T12:05:09;4.32;;;1.20;;
78489;SDS011;67776;52.012;4.736;2023-08-06T12:07:37;3.25;;;1.20;;
78489;SDS011;67776;52.012;4.736;2023-08-06T12:10:04;4.63;;;1.40;;
78489;SDS011;67776;52.012;4.736;2023-08-06T12:12:31;5.77;;;1.17;;
78489;SDS011;67776;52.012;4.736;2023-08-06T12:14:56;3.47;;;1.10;;
78489;SDS011;67776;52.012;4.736;2023-08-06T12:17:22;4.87;;;0.97;;
78489;SDS011;67776;52.012;4.736;2023-08-06T12:19:48;3.10;;;1.13;;
78489;SDS011;67776;52.012;4.736;2023-08-06T12:22:14;3.47;;;1.00;;
78489;SDS011;67776;52.012;4.736;2023-08-06T12:24:41;4.15;;;0.93;;
78489;SDS011;67776;52.012;4.736;2023-08-06T12:27:07;5.17;;;1.00;;
78489;SDS011;67776;52.012;4.736;2023-08-06T12:29:32;2.53;;;1.00;;
78489;SDS011;67776;52.012;4.736;2023-08-06T12:31:57;2.63;;;1.03;;
78489;SDS011;67776;52.012;4.736;2023-08-06T12:34:23;3.67;;;0.97;;
78489;SDS011;67776;52.012;4.736;2023-08-06T12:36:48;3.10;;;1.00;;
78489;SDS011;67776;52.012;4.736;2023-08-06T12:39:14;5.40;;;1.10;;
78489;SDS011;67776;52.012;4.736;2023-08-06T12:41:39;6.20;;;1.20;;
78489;SDS011;67776;52.012;4.736;2023-08-06T12:44:04;5.43;;;1.13;;
78489;SDS011;67776;52.012;4.736;2023-08-06T12:46:30;2.77;;;0.90;;
78489;SDS011;67776;52.012;4.736;2023-08-06T12:48:56;2.22;;;0.90;;
78489;SDS011;67776;52.012;4.736;2023-08-06T12:51:22;3.70;;;1.10;;
78489;SDS011;67776;52.012;4.736;2023-08-06T12:53:48;6.53;;;1.17;;
78489;SDS011;67776;52.012;4.736;2023-08-06T12:56:13;3.23;;;1.00;;
78489;SDS011;67776;52.012;4.736;2023-08-06T12:58:38;2.27;;;0.97;;
78489;SDS011;67776;52.012;4.736;2023-08-06T13:01:04;3.33;;;0.98;;
78489;SDS011;67776;52.012;4.736;2023-08-06T13:03:30;5.20;;;1.08;;
78489;SDS011;67776;52.012;4.736;2023-08-06T13:05:55;4.17;;;1.20;;
78489;SDS011;67776;52.012;4.736;2023-08-06T13:08:22;2.75;;;1.02;;
78489;SDS011;67776;52.012;4.736;2023-08-06T13:10:48;2.37;;;0.90;;
78489;SDS011;67776;52.012;4.736;2023-08-06T13:13:13;3.60;;;1.03;;
78489;SDS011;67776;52.012;4.736;2023-08-06T13:15:39;2.50;;;0.80;;
78489;SDS011;67776;52.012;4.736;2023-08-06T13:18:04;1.63;;;0.80;;
78489;SDS011;67776;52.012;4.736;2023-08-06T13:20:30;2.70;;;0.97;;
78489;SDS011;67776;52.012;4.736;2023-08-06T13:22:57;3.58;;;0.90;;
78489;SDS011;67776;52.012;4.736;2023-08-06T13:25:23;5.15;;;1.15;;
78489;SDS011;67776;52.012;4.736;2023-08-06T13:27:48;3.03;;;0.90;;
78489;SDS011;67776;52.012;4.736;2023-08-06T13:30:14;5.10;;;1.10;;
78489;SDS011;67776;52.012;4.736;2023-08-06T13:32:41;5.07;;;1.30;;
78489;SDS011;67776;52.012;4.736;2023-08-06T13:35:06;4.27;;;1.20;;
78489;SDS011;67776;52.012;4.736;2023-08-06T13:37:32;5.37;;;1.20;;
78489;SDS011;67776;52.012;4.736;2023-08-06T13:39:57;5.13;;;1.37;;
78489;SDS011;67776;52.012;4.736;2023-08-06T13:42:23;4.22;;;1.20;;
78489;SDS011;67776;52.012;4.736;2023-08-06T13:44:49;2.77;;;1.13;;
78489;SDS011;67776;52.012;4.736;2023-08-06T13:47:14;3.70;;;1.40;;
78489;SDS011;67776;52.012;4.736;2023-08-06T13:49:39;5.03;;;1.47;;
78489;SDS011;67776;52.012;4.736;2023-08-06T13:52:05;4.60;;;1.50;;
78489;SDS011;67776;52.012;4.736;2023-08-06T13:54:30;6.37;;;1.70;;
78489;SDS011;67776;52.012;4.736;2023-08-06T13:56:56;4.37;;;1.47;;
78489;SDS011;67776;52.012;4.736;2023-08-06T13:59:21;3.72;;;1.50;;
78489;SDS011;67776;52.012;4.736;2023-08-06T14:01:49;5.25;;;1.30;;
78489;SDS011;67776;52.012;4.736;2023-08-06T14:04:14;5.77;;;1.60;;
78489;SDS011;67776;52.012;4.736;2023-08-06T14:06:40;7.10;;;1.40;;
78489;SDS011;67776;52.012;4.736;2023-08-06T14:09:05;7.73;;;1.20;;
78489;SDS011;67776;52.012;4.736;2023-08-06T14:11:30;6.60;;;1.20;;
78489;SDS011;67776;52.012;4.736;2023-08-06T14:13:56;4.47;;;0.85;;
78489;SDS011;67776;52.012;4.736;2023-08-06T14:16:21;4.57;;;0.80;;
78489;SDS011;67776;52.012;4.736;2023-08-06T14:18:46;6.30;;;0.80;;
78489;SDS011;67776;52.012;4.736;2023-08-06T14:21:12;7.53;;;0.90;;
78489;SDS011;67776;52.012;4.736;2023-08-06T14:23:38;4.60;;;0.80;;
78489;SDS011;67776;52.012;4.736;2023-08-06T14:26:06;8.95;;;1.15;;
78489;SDS011;67776;52.012;4.736;2023-08-06T14:28:31;7.03;;;1.10;;
78489;SDS011;67776;52.012;4.736;2023-08-06T14:30:57;8.73;;;1.57;;
78489;SDS011;67776;52.012;4.736;2023-08-06T14:33:22;7.18;;;0.90;;
78489;SDS011;67776;52.012;4.736;2023-08-06T14:35:47;6.17;;;0.87;;
78489;SDS011;67776;52.012;4.736;2023-08-06T14:38:13;5.23;;;1.00;;
78489;SDS011;67776;52.012;4.736;2023-08-06T14:40:38;5.90;;;0.80;;